sensor_id;sensor_type;location;lat;lon;timestamp;noise_LAeq;noise_LA_min;noise_LA_max;noise_LA01;noise_LA95
38366;Laerm;943;51.568;6.998;2023-04-24T00:01:32;67.32;36.29;89.68;;
38366;Laerm;943;51.568;6.998;2023-04-24T00:04:01;61.39;35.60;83.61;;
38366;Laerm;943;51.568;6.998;2023-04-24T00:06:31;68.05;37.80;90.32;;
38366;Laerm;943;51.568;6.998;2023-04-24T00:09:03;70.17;36.72;91.62;;
38366;Laerm;943;51.568;6.998;2023-04-24T00:11:32;52.85;37.25;79.48;;
38366;Laerm;943;51.568;6.998;2023-04-24T00:14:00;63.65;36.60;85.59;;
38366;Laerm;943;51.568;6.998;2023-04-24T00:16:28;65.17;36.15;89.84;;
38366;Laerm;943;51.568;6.998;2023-04-24T00:18:56;70.29;33.89;91.84;;
38366;Laerm;943;51.568;6.998;2023-04-24T00:21:24;64.13;35.59;89.59;;
38366;Laerm;943;51.568;6.998;2023-04-24T00:23:53;43.42;34.47;68.83;;
38366;Laerm;943;51.568;6.998;2023-04-24T00:26:21;58.60;35.48;84.33;;
38366;Laerm;943;51.568;6.998;2023-04-24T00:28:49;57.91;35.82;83.55;;
38366;Laerm;943;51.568;6.998;2023-04-24T00:31:17;68.16;36.03;90.61;;
38366;Laerm;943;51.568;6.998;2023-04-24T00:33:45;66.70;34.71;90.62;;
38366;Laerm;943;51.568;6.998;2023-04-24T00:36:13;46.68;35.28;74.62;;
38366;Laerm;943;51.568;6.998;2023-04-24T00:38:40;61.03;34.26;87.43;;
38366;Laerm;943;51.568;6.998;2023-04-24T00:41:08;60.46;36.33;87.58;;
38366;Laerm;943;51.568;6.998;2023-04-24T00:43:36;59.55;36.46;83.28;;
38366;Laerm;943;51.568;6.998;2023-04-24T00:46:04;49.17;36.34;74.03;;
38366;Laerm;943;51.568;6.998;2023-04-24T00:48:34;50.41;36.84;72.98;;
38366;Laerm;943;51.568;6.998;2023-04-24T00:51:02;40.41;36.42;51.05;;
38366;Laerm;943;51.568;6.998;2023-04-24T00:53:30;62.48;35.50;86.54;;
38366;Laerm;943;51.568;6.998;2023-04-24T00:56:00;68.84;35.89;90.56;;
38366;Laerm;943;51.568;6.998;2023-04-24T00:58:29;53.87;34.23;80.21;;
38366;Laerm;943;51.568;6.998;2023-04-24T01:01:00;63.47;34.18;86.54;;
38366;Laerm;943;51.568;6.998;2023-04-24T01:03:31;54.86;35.69;79.73;;
38366;Laerm;943;51.568;6.998;2023-04-24T01:06:00;42.40;35.66;61.00;;
38366;Laerm;943;51.568;6.998;2023-04-24T01:08:29;80.56;36.90;98.88;;
38366;Laerm;943;51.568;6.998;2023-04-24T01:10:58;70.86;37.38;94.24;;
38366;Laerm;943;51.568;6.998;2023-04-24T01:13:26;60.42;34.72;91.83;;
38366;Laerm;943;51.568;6.998;2023-04-24T01:15:54;68.30;35.94;88.77;;
38366;Laerm;943;51.568;6.998;2023-04-24T01:18:22;64.76;36.49;87.06;;
38366;Laerm;943;51.568;6.998;2023-04-24T01:20:57;59.29;38.48;82.42;;
38366;Laerm;943;51.568;6.998;2023-04-24T01:23:26;58.49;36.20;83.81;;
38366;Laerm;943;51.568;6.998;2023-04-24T01:25:54;70.01;37.02;92.63;;
38366;Laerm;943;51.568;6.998;2023-04-24T01:28:23;67.45;37.63;90.60;;
38366;Laerm;943;51.568;6.998;2023-04-24T01:30:52;71.95;37.74;94.41;;
38366;Laerm;943;51.568;6.998;2023-04-24T01:33:23;64.30;37.88;85.21;;
38366;Laerm;943;51.568;6.998;2023-04-24T01:35:52;45.30;36.13;71.92;;
38366;Laerm;943;51.568;6.998;2023-04-24T01:38:20;41.53;35.74;66.83;;
38366;Laerm;943;51.568;6.998;2023-04-24T01:40:49;68.59;36.27;88.56;;
38366;Laerm;943;51.568;6.998;2023-04-24T01:43:18;78.71;36.97;98.37;;
38366;Laerm;943;51.568;6.998;2023-04-24T01:45:46;70.00;35.43;91.73;;
38366;Laerm;943;51.568;6.998;2023-04-24T01:48:14;65.87;35.60;87.00;;
38366;Laerm;943;51.568;6.998;2023-04-24T01:50:42;47.91;36.00;72.95;;
38366;Laerm;943;51.568;6.998;2023-04-24T01:53:12;60.07;37.12;84.54;;
38366;Laerm;943;51.568;6.998;2023-04-24T01:55:40;61.51;37.13;84.76;;
38366;Laerm;943;51.568;6.998;2023-04-24T01:58:09;74.30;35.89;95.61;;
38366;Laerm;943;51.568;6.998;2023-04-24T02:00:37;60.37;37.18;79.66;;
38366;Laerm;943;51.568;6.998;2023-04-24T02:03:04;56.13;35.83;79.01;;
38366;Laerm;943;51.568;6.998;2023-04-24T02:05:33;45.69;35.76;71.04;;
38366;Laerm;943;51.568;6.998;2023-04-24T02:08:03;44.08;35.62;68.95;;
38366;Laerm;943;51.568;6.998;2023-04-24T02:10:31;40.67;37.45;49.53;;
38366;Laerm;943;51.568;6.998;2023-04-24T02:12:58;41.99;36.14;68.94;;
38366;Laerm;943;51.568;6.998;2023-04-24T02:15:27;45.33;36.75;67.83;;
38366;Laerm;943;51.568;6.998;2023-04-24T02:17:57;49.13;37.51;73.37;;
38366;Laerm;943;51.568;6.998;2023-04-24T02:20:30;42.07;37.60;60.20;;
38366;Laerm;943;51.568;6.998;2023-04-24T02:23:01;56.41;37.90;84.42;;
38366;Laerm;943;51.568;6.998;2023-04-24T02:25:31;69.18;37.21;90.19;;
38366;Laerm;943;51.568;6.998;2023-04-24T02:27:58;67.61;37.81;91.35;;
38366;Laerm;943;51.568;6.998;2023-04-24T02:30:26;61.11;38.05;85.56;;
38366;Laerm;943;51.568;6.998;2023-04-24T02:32:54;72.16;38.58;94.71;;
38366;Laerm;943;51.568;6.998;2023-04-24T02:35:23;69.20;38.04;90.23;;
38366;Laerm;943;51.568;6.998;2023-04-24T02:37:51;49.99;38.77;66.49;;
38366;Laerm;943;51.568;6.998;2023-04-24T02:40:18;52.02;38.25;74.65;;
38366;Laerm;943;51.568;6.998;2023-04-24T02:42:47;76.11;38.83;95.54;;
38366;Laerm;943;51.568;6.998;2023-04-24T02:45:15;61.51;38.37;85.74;;
38366;Laerm;943;51.568;6.998;2023-04-24T02:47:43;55.17;39.46;82.72;;
38366;Laerm;943;51.568;6.998;2023-04-24T02:50:11;58.10;40.60;81.34;;
38366;Laerm;943;51.568;6.998;2023-04-24T02:52:38;57.54;39.39;80.81;;
38366;Laerm;943;51.568;6.998;2023-04-24T02:55:07;50.03;39.78;73.74;;
38366;Laerm;943;51.568;6.998;2023-04-24T02:57:35;52.62;38.85;78.56;;
38366;Laerm;943;51.568;6.998;2023-04-24T03:00:04;62.14;39.59;88.00;;
38366;Laerm;943;51.568;6.998;2023-04-24T03:02:34;55.30;39.61;80.39;;
38366;Laerm;943;51.568;6.998;2023-04-24T03:05:03;74.30;39.55;93.94;;
38366;Laerm;943;51.568;6.998;2023-04-24T03:07:31;59.48;41.38;82.64;;
38366;Laerm;943;51.568;6.998;2023-04-24T03:09:59;53.74;41.49;71.21;;
38366;Laerm;943;51.568;6.998;2023-04-24T03:12:27;54.23;40.97;76.00;;
38366;Laerm;943;51.568;6.998;2023-04-24T03:14:55;55.80;41.07;75.32;;
38366;Laerm;943;51.568;6.998;2023-04-24T03:17:23;56.82;42.15;75.10;;
38366;Laerm;943;51.568;6.998;2023-04-24T03:19:51;55.72;41.50;75.11;;
38366;Laerm;943;51.568;6.998;2023-04-24T03:22:19;59.49;42.72;83.12;;
38366;Laerm;943;51.568;6.998;2023-04-24T03:24:46;56.76;42.28;79.27;;
38366;Laerm;943;51.568;6.998;2023-04-24T03:27:17;69.14;42.84;91.62;;
38366;Laerm;943;51.568;6.998;2023-04-24T03:29:53;54.07;42.48;71.44;;
38366;Laerm;943;51.568;6.998;2023-04-24T03:32:30;54.14;43.03;71.44;;
38366;Laerm;943;51.568;6.998;2023-04-24T03:35:00;52.65;42.71;69.21;;
38366;Laerm;943;51.568;6.998;2023-04-24T03:37:28;54.03;42.39;68.66;;
38366;Laerm;943;51.568;6.998;2023-04-24T03:40:09;53.67;42.62;69.92;;
38366;Laerm;943;51.568;6.998;2023-04-24T03:42:38;54.81;43.54;69.67;;
38366;Laerm;943;51.568;6.998;2023-04-24T03:45:08;55.67;43.56;70.51;;
38366;Laerm;943;51.568;6.998;2023-04-24T03:47:38;57.32;44.25;70.80;;
38366;Laerm;943;51.568;6.998;2023-04-24T03:50:08;56.80;43.70;78.72;;
38366;Laerm;943;51.568;6.998;2023-04-24T03:52:39;59.80;44.07;75.17;;
38366;Laerm;943;51.568;6.998;2023-04-24T03:55:08;58.07;44.01;79.20;;
38366;Laerm;943;51.568;6.998;2023-04-24T03:57:42;54.93;43.62;70.12;;
38366;Laerm;943;51.568;6.998;2023-04-24T04:00:18;71.54;43.81;93.03;;
38366;Laerm;943;51.568;6.998;2023-04-24T04:02:53;57.01;44.45;81.64;;
38366;Laerm;943;51.568;6.998;2023-04-24T04:05:21;66.54;44.10;89.32;;
38366;Laerm;943;51.568;6.998;2023-04-24T04:07:49;57.20;43.51;81.34;;
38366;Laerm;943;51.568;6.998;2023-04-24T04:10:18;68.01;44.32;88.49;;
38366;Laerm;943;51.568;6.998;2023-04-24T04:12:46;62.61;42.92;78.42;;
38366;Laerm;943;51.568;6.998;2023-04-24T04:15:14;67.51;43.53;88.76;;
38366;Laerm;943;51.568;6.998;2023-04-24T04:17:42;58.40;44.37;75.74;;
38366;Laerm;943;51.568;6.998;2023-04-24T04:20:11;59.54;43.89;87.45;;
38366;Laerm;943;51.568;6.998;2023-04-24T04:22:40;63.46;43.92;87.25;;
38366;Laerm;943;51.568;6.998;2023-04-24T04:25:16;56.41;42.88;83.37;;
38366;Laerm;943;51.568;6.998;2023-04-24T04:27:47;57.14;44.05;80.43;;
38366;Laerm;943;51.568;6.998;2023-04-24T04:30:16;65.20;43.40;86.82;;
38366;Laerm;943;51.568;6.998;2023-04-24T04:32:50;59.57;43.12;82.81;;
38366;Laerm;943;51.568;6.998;2023-04-24T04:35:18;49.54;42.69;62.31;;
38366;Laerm;943;51.568;6.998;2023-04-24T04:37:51;51.44;43.69;68.99;;
38366;Laerm;943;51.568;6.998;2023-04-24T04:40:45;53.76;42.82;78.52;;
38366;Laerm;943;51.568;6.998;2023-04-24T04:43:15;50.21;43.28;67.82;;
38366;Laerm;943;51.568;6.998;2023-04-24T04:45:51;52.44;43.69;76.12;;
38366;Laerm;943;51.568;6.998;2023-04-24T04:48:32;58.44;43.28;83.90;;
38366;Laerm;943;51.568;6.998;2023-04-24T04:51:02;55.46;43.40;79.34;;
38366;Laerm;943;51.568;6.998;2023-04-24T04:53:30;50.39;44.09;67.00;;
38366;Laerm;943;51.568;6.998;2023-04-24T04:55:58;46.66;42.96;54.43;;
38366;Laerm;943;51.568;6.998;2023-04-24T04:58:34;58.45;42.30;86.18;;
38366;Laerm;943;51.568;6.998;2023-04-24T05:01:02;47.74;42.95;61.63;;
38366;Laerm;943;51.568;6.998;2023-04-24T05:03:35;47.76;43.31;58.20;;
38366;Laerm;943;51.568;6.998;2023-04-24T05:06:08;63.37;43.41;87.66;;
38366;Laerm;943;51.568;6.998;2023-04-24T05:08:39;60.94;43.41;84.87;;
38366;Laerm;943;51.568;6.998;2023-04-24T05:11:17;48.20;43.83;64.34;;
38366;Laerm;943;51.568;6.998;2023-04-24T05:13:46;48.05;43.24;68.11;;
38366;Laerm;943;51.568;6.998;2023-04-24T05:16:19;48.99;43.69;66.30;;
38366;Laerm;943;51.568;6.998;2023-04-24T05:18:49;54.87;43.24;78.07;;
38366;Laerm;943;51.568;6.998;2023-04-24T05:21:21;55.52;44.14;78.98;;
38366;Laerm;943;51.568;6.998;2023-04-24T05:23:51;66.22;43.68;90.94;;
38366;Laerm;943;51.568;6.998;2023-04-24T05:26:32;69.37;44.00;92.73;;
38366;Laerm;943;51.568;6.998;2023-04-24T05:29:00;59.53;42.46;87.67;;
38366;Laerm;943;51.568;6.998;2023-04-24T05:31:29;61.16;43.81;83.03;;
38366;Laerm;943;51.568;6.998;2023-04-24T05:33:56;69.23;43.17;91.20;;
38366;Laerm;943;51.568;6.998;2023-04-24T05:36:24;61.88;43.29;86.34;;
38366;Laerm;943;51.568;6.998;2023-04-24T05:38:52;51.91;44.05;75.04;;
38366;Laerm;943;51.568;6.998;2023-04-24T05:41:20;58.60;44.45;82.94;;
38366;Laerm;943;51.568;6.998;2023-04-24T05:43:48;60.22;45.19;85.70;;
38366;Laerm;943;51.568;6.998;2023-04-24T05:46:16;73.74;44.46;93.83;;
38366;Laerm;943;51.568;6.998;2023-04-24T05:48:44;70.54;44.95;91.65;;
38366;Laerm;943;51.568;6.998;2023-04-24T05:51:12;69.18;44.67;93.06;;
38366;Laerm;943;51.568;6.998;2023-04-24T05:53:42;60.33;44.19;79.29;;
38366;Laerm;943;51.568;6.998;2023-04-24T05:56:11;59.90;44.85;79.96;;
38366;Laerm;943;51.568;6.998;2023-04-24T05:58:40;68.63;45.33;88.75;;
38366;Laerm;943;51.568;6.998;2023-04-24T06:01:09;77.20;44.26;96.02;;
38366;Laerm;943;51.568;6.998;2023-04-24T06:03:39;61.22;44.61;83.39;;
38366;Laerm;943;51.568;6.998;2023-04-24T06:06:08;63.18;47.46;85.80;;
38366;Laerm;943;51.568;6.998;2023-04-24T06:08:36;66.27;46.97;88.99;;
38366;Laerm;943;51.568;6.998;2023-04-24T06:11:04;66.42;45.04;88.51;;
38366;Laerm;943;51.568;6.998;2023-04-24T06:13:32;59.43;43.78;82.70;;
38366;Laerm;943;51.568;6.998;2023-04-24T06:16:20;61.76;44.04;84.53;;
38366;Laerm;943;51.568;6.998;2023-04-24T06:18:55;60.82;44.30;84.62;;
38366;Laerm;943;51.568;6.998;2023-04-24T06:21:22;51.64;43.65;77.73;;
38366;Laerm;943;51.568;6.998;2023-04-24T06:23:50;49.65;43.66;70.31;;
38366;Laerm;943;51.568;6.998;2023-04-24T06:26:18;58.85;45.01;84.80;;
38366;Laerm;943;51.568;6.998;2023-04-24T06:28:46;55.21;45.16;79.08;;
38366;Laerm;943;51.568;6.998;2023-04-24T06:31:13;50.91;45.02;75.87;;
38366;Laerm;943;51.568;6.998;2023-04-24T06:33:42;51.06;45.93;74.88;;
38366;Laerm;943;51.568;6.998;2023-04-24T06:36:09;63.46;44.43;88.60;;
38366;Laerm;943;51.568;6.998;2023-04-24T06:38:38;63.92;44.83;89.17;;
38366;Laerm;943;51.568;6.998;2023-04-24T06:41:06;56.89;45.00;80.19;;
38366;Laerm;943;51.568;6.998;2023-04-24T06:43:34;49.69;45.22;66.31;;
38366;Laerm;943;51.568;6.998;2023-04-24T06:46:03;57.78;45.56;82.70;;
38366;Laerm;943;51.568;6.998;2023-04-24T06:48:31;70.69;44.91;94.69;;
38366;Laerm;943;51.568;6.998;2023-04-24T06:50:59;50.23;45.29;68.23;;
38366;Laerm;943;51.568;6.998;2023-04-24T06:53:26;57.06;45.29;78.14;;
38366;Laerm;943;51.568;6.998;2023-04-24T06:55:55;67.65;45.30;90.70;;
38366;Laerm;943;51.568;6.998;2023-04-24T06:58:25;64.54;45.10;87.75;;
38366;Laerm;943;51.568;6.998;2023-04-24T07:00:53;53.64;45.15;71.38;;
38366;Laerm;943;51.568;6.998;2023-04-24T07:03:20;54.99;44.04;80.51;;
38366;Laerm;943;51.568;6.998;2023-04-24T07:05:49;55.71;42.58;77.95;;
38366;Laerm;943;51.568;6.998;2023-04-24T07:08:17;49.45;44.69;72.41;;
38366;Laerm;943;51.568;6.998;2023-04-24T07:10:45;47.56;44.45;60.98;;
38366;Laerm;943;51.568;6.998;2023-04-24T07:13:13;48.53;43.37;68.82;;
38366;Laerm;943;51.568;6.998;2023-04-24T07:15:41;55.08;44.18;77.60;;
38366;Laerm;943;51.568;6.998;2023-04-24T07:18:09;50.77;43.83;73.85;;
38366;Laerm;943;51.568;6.998;2023-04-24T07:20:37;54.73;44.50;78.61;;
38366;Laerm;943;51.568;6.998;2023-04-24T07:23:05;55.54;45.12;74.16;;
38366;Laerm;943;51.568;6.998;2023-04-24T07:25:33;55.23;44.95;73.06;;
38366;Laerm;943;51.568;6.998;2023-04-24T07:28:01;56.11;44.28;75.90;;
38366;Laerm;943;51.568;6.998;2023-04-24T07:30:30;69.36;44.96;92.87;;
38366;Laerm;943;51.568;6.998;2023-04-24T07:33:00;55.44;43.67;77.92;;
38366;Laerm;943;51.568;6.998;2023-04-24T07:35:28;51.35;44.90;72.34;;
38366;Laerm;943;51.568;6.998;2023-04-24T07:37:56;50.88;46.18;64.25;;
38366;Laerm;943;51.568;6.998;2023-04-24T07:40:24;53.90;45.65;76.58;;
38366;Laerm;943;51.568;6.998;2023-04-24T07:42:52;69.79;46.62;90.43;;
38366;Laerm;943;51.568;6.998;2023-04-24T07:45:19;71.67;46.58;91.86;;
38366;Laerm;943;51.568;6.998;2023-04-24T07:47:47;55.51;45.15;80.64;;
38366;Laerm;943;51.568;6.998;2023-04-24T07:50:16;71.28;43.75;93.07;;
38366;Laerm;943;51.568;6.998;2023-04-24T07:52:43;73.68;45.79;93.29;;
38366;Laerm;943;51.568;6.998;2023-04-24T07:55:11;66.63;45.00;84.11;;
38366;Laerm;943;51.568;6.998;2023-04-24T07:57:39;73.60;45.73;93.99;;
38366;Laerm;943;51.568;6.998;2023-04-24T08:00:08;76.65;44.21;94.64;;
38366;Laerm;943;51.568;6.998;2023-04-24T08:02:39;52.92;44.33;76.51;;
38366;Laerm;943;51.568;6.998;2023-04-24T08:05:08;68.68;45.32;89.39;;
38366;Laerm;943;51.568;6.998;2023-04-24T08:07:37;56.76;45.46;80.23;;
38366;Laerm;943;51.568;6.998;2023-04-24T08:10:07;69.00;45.78;90.38;;
38366;Laerm;943;51.568;6.998;2023-04-24T08:12:35;59.34;45.47;81.79;;
38366;Laerm;943;51.568;6.998;2023-04-24T08:15:05;59.57;43.98;82.51;;
38366;Laerm;943;51.568;6.998;2023-04-24T08:17:35;59.20;44.26;81.18;;
38366;Laerm;943;51.568;6.998;2023-04-24T08:20:05;58.30;45.76;80.57;;
38366;Laerm;943;51.568;6.998;2023-04-24T08:22:37;50.93;45.18;71.45;;
38366;Laerm;943;51.568;6.998;2023-04-24T08:25:06;51.06;44.87;69.31;;
38366;Laerm;943;51.568;6.998;2023-04-24T08:27:34;51.77;45.03;75.08;;
38366;Laerm;943;51.568;6.998;2023-04-24T08:30:06;67.31;45.27;86.50;;
38366;Laerm;943;51.568;6.998;2023-04-24T08:32:34;57.42;46.16;78.32;;
38366;Laerm;943;51.568;6.998;2023-04-24T08:35:02;54.08;45.41;73.67;;
38366;Laerm;943;51.568;6.998;2023-04-24T08:37:30;56.06;44.92;81.84;;
38366;Laerm;943;51.568;6.998;2023-04-24T08:39:58;59.81;44.71;85.32;;
38366;Laerm;943;51.568;6.998;2023-04-24T08:42:30;51.56;45.71;73.44;;
38366;Laerm;943;51.568;6.998;2023-04-24T08:45:00;61.25;45.10;80.66;;
38366;Laerm;943;51.568;6.998;2023-04-24T08:47:31;49.95;46.05;64.57;;
38366;Laerm;943;51.568;6.998;2023-04-24T08:50:03;60.05;47.22;82.59;;
38366;Laerm;943;51.568;6.998;2023-04-24T08:52:35;52.20;46.26;77.12;;
38366;Laerm;943;51.568;6.998;2023-04-24T08:55:04;48.97;46.17;62.78;;
38366;Laerm;943;51.568;6.998;2023-04-24T08:57:33;49.36;46.74;62.20;;
38366;Laerm;943;51.568;6.998;2023-04-24T09:00:02;55.97;46.67;76.29;;
38366;Laerm;943;51.568;6.998;2023-04-24T09:02:31;70.19;47.78;90.88;;
38366;Laerm;943;51.568;6.998;2023-04-24T09:05:01;74.19;48.32;95.38;;
38366;Laerm;943;51.568;6.998;2023-04-24T09:07:35;77.99;49.40;95.81;;
38366;Laerm;943;51.568;6.998;2023-04-24T09:10:08;85.37;48.54;98.69;;
38366;Laerm;943;51.568;6.998;2023-04-24T09:12:36;70.01;48.48;88.56;;
38366;Laerm;943;51.568;6.998;2023-04-24T09:15:07;58.15;48.32;77.13;;
38366;Laerm;943;51.568;6.998;2023-04-24T09:17:36;70.43;47.31;92.36;;
38366;Laerm;943;51.568;6.998;2023-04-24T09:20:06;63.29;46.72;82.16;;
38366;Laerm;943;51.568;6.998;2023-04-24T09:22:35;57.44;47.10;79.65;;
38366;Laerm;943;51.568;6.998;2023-04-24T09:25:09;78.43;47.52;97.80;;
38366;Laerm;943;51.568;6.998;2023-04-24T09:27:45;72.75;47.47;94.20;;
38366;Laerm;943;51.568;6.998;2023-04-24T09:30:14;58.88;47.19;82.55;;
38366;Laerm;943;51.568;6.998;2023-04-24T09:32:48;54.04;48.30;72.72;;
38366;Laerm;943;51.568;6.998;2023-04-24T09:35:16;87.79;49.40;103.16;;
38366;Laerm;943;51.568;6.998;2023-04-24T09:37:46;74.44;50.24;91.27;;
38366;Laerm;943;51.568;6.998;2023-04-24T09:40:22;79.48;50.33;97.71;;
38366;Laerm;943;51.568;6.998;2023-04-24T09:42:56;88.03;52.11;101.80;;
38366;Laerm;943;51.568;6.998;2023-04-24T09:45:37;76.87;49.27;93.01;;
38366;Laerm;943;51.568;6.998;2023-04-24T09:48:09;73.94;49.79;92.89;;
38366;Laerm;943;51.568;6.998;2023-04-24T09:50:38;83.96;49.79;99.10;;
38366;Laerm;943;51.568;6.998;2023-04-24T09:53:07;78.21;50.55;95.60;;
38366;Laerm;943;51.568;6.998;2023-04-24T09:55:45;84.81;50.42;105.68;;
38366;Laerm;943;51.568;6.998;2023-04-24T09:58:17;85.57;51.64;100.76;;
38366;Laerm;943;51.568;6.998;2023-04-24T10:00:46;79.59;51.63;98.50;;
38366;Laerm;943;51.568;6.998;2023-04-24T10:03:14;86.45;50.07;101.50;;
38366;Laerm;943;51.568;6.998;2023-04-24T10:05:47;80.44;50.60;96.93;;
38366;Laerm;943;51.568;6.998;2023-04-24T10:08:15;72.33;49.67;89.23;;
38366;Laerm;943;51.568;6.998;2023-04-24T10:10:45;75.89;49.82;92.79;;
38366;Laerm;943;51.568;6.998;2023-04-24T10:13:15;77.42;49.40;96.03;;
38366;Laerm;943;51.568;6.998;2023-04-24T10:15:44;77.87;49.91;94.35;;
38366;Laerm;943;51.568;6.998;2023-04-24T10:18:12;72.26;48.67;90.25;;
38366;Laerm;943;51.568;6.998;2023-04-24T10:20:41;84.55;49.24;103.68;;
38366;Laerm;943;51.568;6.998;2023-04-24T10:23:11;69.99;48.66;93.34;;
38366;Laerm;943;51.568;6.998;2023-04-24T10:25:40;58.76;46.94;77.61;;
38366;Laerm;943;51.568;6.998;2023-04-24T10:28:11;78.53;47.60;96.28;;
38366;Laerm;943;51.568;6.998;2023-04-24T10:30:43;68.68;49.02;86.92;;
38366;Laerm;943;51.568;6.998;2023-04-24T10:33:12;81.08;49.03;100.81;;
38366;Laerm;943;51.568;6.998;2023-04-24T10:35:50;76.04;48.21;96.42;;
38366;Laerm;943;51.568;6.998;2023-04-24T10:38:26;87.07;49.87;100.19;;
38366;Laerm;943;51.568;6.998;2023-04-24T10:41:12;83.59;48.51;102.43;;
38366;Laerm;943;51.568;6.998;2023-04-24T10:44:11;78.91;48.00;99.49;;
38366;Laerm;943;51.568;6.998;2023-04-24T10:46:46;80.49;48.29;97.65;;
38366;Laerm;943;51.568;6.998;2023-04-24T10:49:31;77.96;50.01;97.26;;
38366;Laerm;943;51.568;6.998;2023-04-24T10:52:04;65.97;48.53;88.79;;
38366;Laerm;943;51.568;6.998;2023-04-24T10:54:47;81.60;47.75;101.06;;
38366;Laerm;943;51.568;6.998;2023-04-24T10:59:51;72.86;48.93;93.48;;
38366;Laerm;943;51.568;6.998;2023-04-24T11:02:40;73.65;49.10;93.12;;
38366;Laerm;943;51.568;6.998;2023-04-24T11:05:14;78.88;49.30;95.94;;
38366;Laerm;943;51.568;6.998;2023-04-24T11:08:22;70.42;48.79;90.76;;
38366;Laerm;943;51.568;6.998;2023-04-24T11:11:16;76.28;48.43;95.66;;
38366;Laerm;943;51.568;6.998;2023-04-24T11:16:51;77.11;47.37;97.40;;
38366;Laerm;943;51.568;6.998;2023-04-24T11:19:26;81.07;48.19;99.61;;
38366;Laerm;943;51.568;6.998;2023-04-24T11:22:03;52.30;47.03;71.88;;
38366;Laerm;943;51.568;6.998;2023-04-24T11:27:22;77.45;46.88;95.09;;
38366;Laerm;943;51.568;6.998;2023-04-24T11:32:39;86.96;48.01;101.92;;
38366;Laerm;943;51.568;6.998;2023-04-24T11:35:22;80.17;47.87;96.48;;
38366;Laerm;943;51.568;6.998;2023-04-24T11:37:55;68.09;46.22;90.61;;
38366;Laerm;943;51.568;6.998;2023-04-24T11:40:26;75.13;46.01;94.54;;
38366;Laerm;943;51.568;6.998;2023-04-24T11:42:54;76.01;46.93;92.57;;
38366;Laerm;943;51.568;6.998;2023-04-24T11:45:30;75.01;48.02;92.23;;
38366;Laerm;943;51.568;6.998;2023-04-24T11:47:58;76.75;46.82;94.81;;
38366;Laerm;943;51.568;6.998;2023-04-24T11:50:27;77.65;46.74;94.71;;
38366;Laerm;943;51.568;6.998;2023-04-24T11:52:57;84.71;47.23;98.63;;
38366;Laerm;943;51.568;6.998;2023-04-24T11:55:29;85.27;49.50;102.21;;
38366;Laerm;943;51.568;6.998;2023-04-24T11:57:59;78.24;49.04;94.62;;
38366;Laerm;943;51.568;6.998;2023-04-24T12:00:32;82.14;47.73;101.49;;
38366;Laerm;943;51.568;6.998;2023-04-24T12:03:11;66.53;46.06;87.05;;
38366;Laerm;943;51.568;6.998;2023-04-24T12:05:40;71.23;45.68;87.96;;
38366;Laerm;943;51.568;6.998;2023-04-24T12:08:08;84.70;46.72;102.04;;
38366;Laerm;943;51.568;6.998;2023-04-24T12:10:37;79.33;49.24;97.08;;
38366;Laerm;943;51.568;6.998;2023-04-24T12:13:04;76.66;47.23;93.79;;
38366;Laerm;943;51.568;6.998;2023-04-24T12:15:32;82.29;46.71;97.75;;
38366;Laerm;943;51.568;6.998;2023-04-24T12:18:03;84.85;47.36;99.12;;
38366;Laerm;943;51.568;6.998;2023-04-24T12:20:32;79.12;45.77;98.21;;
38366;Laerm;943;51.568;6.998;2023-04-24T12:23:01;82.53;47.95;98.79;;
38366;Laerm;943;51.568;6.998;2023-04-24T12:25:32;78.82;48.08;95.61;;
38366;Laerm;943;51.568;6.998;2023-04-24T12:30:40;69.52;46.35;85.77;;
38366;Laerm;943;51.568;6.998;2023-04-24T12:33:08;68.94;46.96;86.97;;
38366;Laerm;943;51.568;6.998;2023-04-24T12:35:40;76.89;46.53;92.89;;
38366;Laerm;943;51.568;6.998;2023-04-24T12:38:12;66.96;46.64;88.05;;
38366;Laerm;943;51.568;6.998;2023-04-24T12:40:43;65.33;45.52;87.53;;
38366;Laerm;943;51.568;6.998;2023-04-24T12:43:20;77.27;46.45;94.94;;
38366;Laerm;943;51.568;6.998;2023-04-24T12:45:48;75.87;46.17;96.80;;
38366;Laerm;943;51.568;6.998;2023-04-24T12:48:16;73.09;46.00;91.41;;
38366;Laerm;943;51.568;6.998;2023-04-24T12:50:44;70.06;46.16;89.03;;
38366;Laerm;943;51.568;6.998;2023-04-24T12:53:14;78.75;46.12;95.18;;
38366;Laerm;943;51.568;6.998;2023-04-24T12:55:44;68.88;46.40;87.94;;
38366;Laerm;943;51.568;6.998;2023-04-24T12:58:23;75.90;45.24;91.30;;
38366;Laerm;943;51.568;6.998;2023-04-24T13:00:51;81.88;45.92;95.98;;
38366;Laerm;943;51.568;6.998;2023-04-24T13:03:19;72.77;45.78;91.70;;
38366;Laerm;943;51.568;6.998;2023-04-24T13:05:48;79.82;45.26;97.54;;
38366;Laerm;943;51.568;6.998;2023-04-24T13:08:16;76.07;45.81;93.19;;
38366;Laerm;943;51.568;6.998;2023-04-24T13:10:43;61.57;45.79;84.17;;
38366;Laerm;943;51.568;6.998;2023-04-24T13:13:11;67.30;46.09;92.64;;
38366;Laerm;943;51.568;6.998;2023-04-24T13:15:39;67.86;46.19;86.79;;
38366;Laerm;943;51.568;6.998;2023-04-24T13:18:07;81.28;45.52;96.06;;
38366;Laerm;943;51.568;6.998;2023-04-24T13:20:35;69.28;45.99;88.51;;
38366;Laerm;943;51.568;6.998;2023-04-24T13:23:03;73.50;45.45;88.52;;
38366;Laerm;943;51.568;6.998;2023-04-24T13:25:36;70.86;44.94;93.30;;
38366;Laerm;943;51.568;6.998;2023-04-24T13:28:07;74.88;45.10;90.50;;
38366;Laerm;943;51.568;6.998;2023-04-24T13:30:35;79.80;45.77;96.55;;
38366;Laerm;943;51.568;6.998;2023-04-24T13:33:03;85.96;47.29;103.18;;
38366;Laerm;943;51.568;6.998;2023-04-24T13:35:31;87.66;46.87;102.16;;
38366;Laerm;943;51.568;6.998;2023-04-24T13:37:59;79.40;47.50;97.24;;
38366;Laerm;943;51.568;6.998;2023-04-24T13:40:28;79.84;47.40;95.64;;
38366;Laerm;943;51.568;6.998;2023-04-24T13:42:56;64.90;45.63;87.23;;
38366;Laerm;943;51.568;6.998;2023-04-24T13:45:24;62.11;45.87;90.92;;
38366;Laerm;943;51.568;6.998;2023-04-24T13:47:53;73.02;45.80;94.09;;
38366;Laerm;943;51.568;6.998;2023-04-24T13:50:24;66.50;44.62;86.48;;
38366;Laerm;943;51.568;6.998;2023-04-24T13:52:52;64.96;45.40;86.89;;
38366;Laerm;943;51.568;6.998;2023-04-24T13:55:22;77.28;44.88;97.82;;
38366;Laerm;943;51.568;6.998;2023-04-24T13:57:50;76.52;44.19;95.54;;
38366;Laerm;943;51.568;6.998;2023-04-24T14:00:20;77.22;45.68;92.88;;
38366;Laerm;943;51.568;6.998;2023-04-24T14:02:48;75.19;43.03;95.09;;
38366;Laerm;943;51.568;6.998;2023-04-24T14:05:16;75.74;45.39;92.62;;
38366;Laerm;943;51.568;6.998;2023-04-24T14:07:44;78.98;45.05;95.13;;
38366;Laerm;943;51.568;6.998;2023-04-24T14:10:12;70.08;43.44;89.23;;
38366;Laerm;943;51.568;6.998;2023-04-24T14:12:40;81.97;45.68;101.74;;
38366;Laerm;943;51.568;6.998;2023-04-24T14:15:09;86.02;47.30;100.56;;
38366;Laerm;943;51.568;6.998;2023-04-24T14:17:37;75.33;45.20;93.18;;
38366;Laerm;943;51.568;6.998;2023-04-24T14:20:06;76.08;44.53;96.35;;
38366;Laerm;943;51.568;6.998;2023-04-24T14:22:34;76.27;46.10;94.09;;
38366;Laerm;943;51.568;6.998;2023-04-24T14:25:03;64.83;46.27;88.02;;
38366;Laerm;943;51.568;6.998;2023-04-24T14:27:32;78.82;45.83;98.35;;
38366;Laerm;943;51.568;6.998;2023-04-24T14:30:03;79.01;45.20;99.28;;
38366;Laerm;943;51.568;6.998;2023-04-24T14:32:32;77.58;46.14;95.69;;
38366;Laerm;943;51.568;6.998;2023-04-24T14:34:59;86.61;48.19;100.95;;
38366;Laerm;943;51.568;6.998;2023-04-24T14:37:27;85.77;48.18;101.97;;